Time;durP1;ratioP1;P1;durP2;ratioP2;P2;SDS_P1;SDS_P2;PMS_P1;PMS_P2;Temp;Humidity;BMP_temperature;BMP_pressure;BME280_temperature;BME280_humidity;BME280_pressure;Samples;Min_cycle;Max_cycle;Signal;HPM_P1;HPM_P2
2023/09/28 00:07:08;;;;;;;13.40;10.38;;;;;;;14.85;68.13;100551.53;31227681;28;97277;-73
2023/09/28 00:22:08;;;;;;;19.20;11.50;;;;;;;14.78;68.97;100545.28;31225879;28;97140;-61
2023/09/28 00:37:09;;;;;;;20.17;11.88;;;;;;;14.66;69.48;100541.44;31224089;28;97271;-62
2023/09/28 00:52:10;;;;;;;18.00;12.65;;;;;;;14.56;69.92;100549.75;31222489;28;97311;-76
2023/09/28 01:07:12;;;;;;;14.57;11.73;;;;;;;14.43;70.66;100528.13;31222743;28;96775;-80
2023/09/28 01:22:14;;;;;;;15.97;12.73;;;;;;;14.30;71.19;100535.00;31220877;28;97046;-69
2023/09/28 01:37:15;;;;;;;17.53;12.80;;;;;;;14.13;71.22;100539.69;31218688;28;97766;-68
2023/09/28 01:52:15;;;;;;;15.90;11.43;;;;;;;14.01;71.99;100531.31;31217192;27;97139;-71
2023/09/28 02:07:16;;;;;;;18.85;12.60;;;;;;;13.85;72.23;100526.94;31214973;28;113258;-66
2023/09/28 02:22:16;;;;;;;19.70;14.40;;;;;;;13.69;72.83;100519.09;31214491;28;101862;-65
2023/09/28 02:37:16;;;;;;;18.33;13.85;;;;;;;13.51;73.18;100525.59;31211089;28;112962;-66
2023/09/28 02:52:17;;;;;;;19.83;13.13;;;;;;;13.37;73.75;100523.75;31210944;27;112346;-70
2023/09/28 03:07:18;;;;;;;23.95;15.65;;;;;;;13.13;73.96;100532.75;31206545;27;96911;-66
2023/09/28 03:22:19;;;;;;;22.42;14.52;;;;;;;13.06;74.66;100537.16;31205237;28;97227;-68
2023/09/28 03:37:20;;;;;;;25.60;15.47;;;;;;;12.96;75.01;100526.69;31206542;28;97214;-64
2023/09/28 03:52:20;;;;;;;20.70;14.95;;;;;;;12.84;75.57;100519.06;31204478;28;109830;-68
2023/09/28 04:07:20;;;;;;;27.10;15.68;;;;;;;12.72;75.69;100525.81;31202205;28;106725;-62
2023/09/28 04:22:20;;;;;;;22.08;15.48;;;;;;;12.54;76.36;100515.41;31219640;27;112202;-62
2023/09/28 04:37:21;;;;;;;21.50;15.57;;;;;;;12.41;76.56;100534.69;31220656;28;103567;-63
2023/09/28 04:52:22;;;;;;;25.75;16.13;;;;;;;12.32;76.89;100530.38;31218617;27;97546;-63
2023/09/28 05:07:22;;;;;;;26.57;16.83;;;;;;;12.36;77.45;100527.19;31216778;28;97154;-65
2023/09/28 05:22:23;;;;;;;21.55;15.52;;;;;;;12.68;77.52;100524.50;31215760;27;96742;-72
2023/09/28 05:37:23;;;;;;;26.25;14.75;;;;;;;13.26;77.66;100535.66;31214017;28;96793;-65
2023/09/28 05:52:23;;;;;;;24.30;15.88;;;;;;;13.77;77.75;100543.09;31213908;27;105511;-65
2023/09/28 06:07:24;;;;;;;21.65;14.70;;;;;;;14.49;76.99;100548.81;31211934;28;96944;-63
2023/09/28 06:22:25;;;;;;;21.92;15.13;;;;;;;15.84;76.37;100550.00;31210626;28;112249;-64
2023/09/28 06:37:25;;;;;;;21.37;14.63;;;;;;;16.98;74.59;100560.47;31208505;28;97485;-62
2023/09/28 06:52:25;;;;;;;18.02;12.73;;;;;;;17.25;71.58;100564.03;31206241;27;96898;-70
2023/09/28 07:07:29;;;;;;;16.15;11.15;;;;;;;18.23;71.28;100563.38;31206724;28;97034;-64
2023/09/28 07:22:29;;;;;;;17.53;10.20;;;;;;;19.30;69.02;100569.31;31204590;28;96751;-62
2023/09/28 07:37:30;;;;;;;11.32;9.25;;;;;;;21.35;65.17;100577.28;31204265;28;96846;-62
2023/09/28 07:52:30;;;;;;;11.85;7.28;;;;;;;22.61;61.66;100581.50;31196080;27;99220;-66
2023/09/28 08:07:33;;;;;;;9.13;6.17;;;;;;;23.97;55.57;100583.59;31223013;28;97098;-62
2023/09/28 08:22:35;;;;;;;8.53;5.60;;;;;;;26.70;50.91;100586.09;31220010;28;96769;-61
2023/09/28 08:37:36;;;;;;;10.93;5.77;;;;;;;33.99;37.81;100589.09;31219319;28;96816;-67
2023/09/28 08:52:36;;;;;;;11.35;5.07;;;;;;;39.63;26.47;100585.06;31218998;27;96737;-65
2023/09/28 09:07:37;;;;;;;8.70;4.28;;;;;;;42.93;20.61;100588.09;31216351;28;96863;-73
2023/09/28 09:22:37;;;;;;;11.68;3.83;;;;;;;45.75;18.05;100570.94;31218582;28;96791;-65
2023/09/28 09:37:44;;;;;;;7.70;3.97;;;;;;;46.55;16.09;100557.50;31215846;28;96860;-66
2023/09/28 09:52:44;;;;;;;6.37;2.87;;;;;;;48.90;13.70;100562.69;31214343;28;97583;-68
2023/09/28 10:07:46;;;;;;;9.50;3.28;;;;;;;49.18;12.61;100546.50;31210868;27;97579;-66
2023/09/28 10:22:47;;;;;;;5.63;3.27;;;;;;;50.19;11.61;100555.28;31209725;28;97014;-63
2023/09/28 10:38:20;;;;;;;9.67;3.10;;;;;;;50.26;10.80;100538.13;31215826;28;98022;-72
2023/09/28 10:53:21;;;;;;;5.47;2.97;;;;;;;51.04;10.13;100517.78;31208449;28;97524;-68
2023/09/28 11:08:22;;;;;;;8.07;3.10;;;;;;;51.55;9.73;100507.97;31206471;28;96763;-68
2023/09/28 11:23:23;;;;;;;11.05;3.25;;;;;;;52.51;9.66;100506.50;31211896;27;97268;-72
2023/09/28 11:38:23;;;;;;;5.23;2.87;;;;;;;56.03;7.48;100495.50;31226100;28;97433;-77
2023/09/28 11:53:24;;;;;;;6.77;2.60;;;;;;;56.02;6.80;100474.69;31223192;27;97410;-78
2023/09/28 12:08:28;;;;;;;5.53;2.42;;;;;;;54.64;6.77;100464.75;31223205;28;97219;-63
2023/09/28 12:23:28;;;;;;;7.90;2.67;;;;;;;53.44;6.91;100470.56;31220768;28;97359;-76
2023/09/28 12:38:28;;;;;;;5.70;2.60;;;;;;;52.42;6.98;100456.00;31218946;27;97392;-69
2023/09/28 12:53:32;;;;;;;10.07;2.90;;;;;;;50.55;8.04;100444.00;31220051;27;97329;-64
2023/09/28 13:08:33;;;;;;;8.80;2.60;;;;;;;50.33;8.03;100416.16;31218192;28;97240;-69
2023/09/28 13:23:33;;;;;;;10.40;2.63;;;;;;;48.21;8.98;100406.59;31217165;28;97215;-61
2023/09/28 13:38:33;;;;;;;7.95;3.03;;;;;;;47.34;9.38;100390.66;31215114;28;97393;-66
2023/09/28 13:53:34;;;;;;;8.55;2.83;;;;;;;44.76;10.49;100380.91;31213997;27;97544;-61
2023/09/28 14:08:35;;;;;;;6.22;2.70;;;;;;;35.55;16.74;100373.53;31212391;28;96902;-61
2023/09/28 14:23:36;;;;;;;8.47;4.17;;;;;;;31.09;21.26;100367.09;31211173;28;97731;-83
2023/09/28 14:38:37;;;;;;;9.20;4.87;;;;;;;29.35;23.27;100372.09;31208392;28;96795;-64
2023/09/28 14:53:38;;;;;;;11.80;3.63;;;;;;;28.75;24.47;100350.47;31209967;27;96984;-63
2023/09/28 15:08:38;;;;;;;5.07;3.08;;;;;;;27.70;26.38;100354.97;31207835;28;96757;-63
2023/09/28 15:23:38;;;;;;;4.55;3.60;;;;;;;26.81;27.49;100369.13;31205406;28;107394;-63
2023/09/28 15:38:39;;;;;;;5.32;3.47;;;;;;;26.06;28.91;100368.78;31203995;28;99896;-63
2023/09/28 15:53:39;;;;;;;5.05;3.53;;;;;;;25.35;30.15;100365.47;31202369;28;103609;-62
2023/09/28 16:08:40;;;;;;;7.50;4.07;;;;;;;24.56;31.68;100378.75;31206663;28;109550;-62
2023/09/28 16:23:40;;;;;;;7.80;5.10;;;;;;;23.85;33.39;100395.97;31223129;28;97092;-63
2023/09/28 16:38:41;;;;;;;8.10;4.43;;;;;;;23.09;35.05;100407.44;31202362;28;113432;-62
2023/09/28 16:53:41;;;;;;;10.85;4.85;;;;;;;22.46;36.86;100419.16;31220166;27;96874;-62
2023/09/28 17:08:43;;;;;;;9.47;5.10;;;;;;;21.91;38.67;100427.81;31199728;28;98366;-62
2023/09/28 17:23:43;;;;;;;8.30;4.33;;;;;;;21.51;40.24;100428.56;31215451;27;98532;-65
2023/09/28 17:38:43;;;;;;;9.30;5.97;;;;;;;21.01;41.70;100438.81;31212250;28;112939;-64
2023/09/28 17:53:44;;;;;;;14.67;7.77;;;;;;;20.55;43.51;100451.97;31224845;27;97428;-62
2023/09/28 18:08:47;;;;;;;12.53;6.60;;;;;;;20.07;45.19;100466.34;31217092;28;96837;-69
2023/09/28 18:23:48;;;;;;;19.07;12.73;;;;;;;19.69;46.84;100476.28;31211038;28;97365;-63
2023/09/28 18:38:48;;;;;;;13.93;7.18;;;;;;;19.18;48.49;100485.47;31208178;27;110966;-64
2023/09/28 18:53:49;;;;;;;12.55;6.70;;;;;;;18.75;49.91;100481.56;31208304;27;96963;-63
2023/09/28 19:08:50;;;;;;;12.73;6.27;;;;;;;18.42;51.48;100490.69;31206234;28;97010;-62
2023/09/28 19:23:50;;;;;;;12.15;6.22;;;;;;;18.09;52.66;100497.03;31208184;28;97524;-67
2023/09/28 19:38:51;;;;;;;12.85;6.80;;;;;;;17.69;53.62;100515.97;31206853;28;97157;-62
2023/09/28 19:53:51;;;;;;;12.18;7.25;;;;;;;17.34;54.98;100518.88;31226676;27;97347;-67
2023/09/28 20:08:51;;;;;;;11.55;7.10;;;;;;;17.03;55.79;100523.00;31225362;28;109991;-63
2023/09/28 20:23:52;;;;;;;11.40;7.00;;;;;;;16.70;56.57;100518.34;31207221;28;98198;-74
2023/09/28 20:38:52;;;;;;;14.85;6.90;;;;;;;16.44;57.64;100527.97;31222049;28;97177;-69
2023/09/28 20:53:52;;;;;;;15.85;7.10;;;;;;;16.20;58.09;100519.41;31223108;27;96804;-65
2023/09/28 21:08:53;;;;;;;10.98;7.57;;;;;;;16.08;59.11;100523.69;31220223;28;98513;-63
2023/09/28 21:23:54;;;;;;;14.27;7.65;;;;;;;15.86;59.87;100523.75;31218553;28;97045;-62
2023/09/28 21:38:55;;;;;;;11.95;7.50;;;;;;;15.60;60.40;100518.19;31218126;28;98479;-69
2023/09/28 21:53:55;;;;;;;10.37;7.07;;;;;;;15.43;60.69;100528.34;31216222;28;98793;-65
2023/09/28 22:08:55;;;;;;;12.88;7.95;;;;;;;15.27;61.51;100524.09;31216499;27;97164;-67
2023/09/28 22:23:56;;;;;;;13.57;7.32;;;;;;;15.11;61.58;100533.25;31214616;28;116340;-64
2023/09/28 22:38:56;;;;;;;9.77;7.25;;;;;;;15.01;62.29;100536.25;31212239;28;113132;-62
2023/09/28 22:53:56;;;;;;;13.10;7.32;;;;;;;14.80;62.88;100535.19;31211930;27;96837;-63
2023/09/28 23:08:57;;;;;;;15.40;7.43;;;;;;;14.65;63.34;100531.72;31211096;28;108779;-64
2023/09/28 23:23:57;;;;;;;10.10;6.90;;;;;;;14.56;63.64;100536.34;31209204;28;97119;-63
2023/09/28 23:38:57;;;;;;;11.52;7.28;;;;;;;14.49;64.17;100544.31;31207637;28;108289;-64
2023/09/28 23:53:58;;;;;;;13.57;7.40;;;;;;;14.40;64.37;100542.75;31207432;28;98620;-64
